• Join FlightAware (Why Join?)
  • Login
  • US Flag 
09:20AM EST


 

Airport Tracker/Info


-or-


 

Live Flight TrackerFlight Track Log ✈ JIA2342 ✈ 23-Jul-2013 ✈ KDCA - KALB

Flight Track Log - Related Links

Times and Time Zones

All times are in EDT time to prevent confusion due to time zone crossing. See the JIA2342 flight status page for this flight to view local times or setup timezone preferences in your user account.

Time Position Orientation Groundspeed Altitude Reporting Facility
EDT Latitude Longitude Course Direction KTS MPH feet Rate Location/Type
07:40PM 38.8667 -77.0500 90° East 163 188 1,200  Level Potomac TRACON
07:41PM 38.9000 -77.1000 311° West 194 223 2,900 1,740 Climbing Potomac TRACON
07:42PM 38.9782 -76.6602 57° Northeast  Level FlightAware Approximate
07:42PM 38.9500 -77.1333 333° Northwest 209 241 4,700  Level Potomac TRACON
07:43PM 39.0271 -76.5355 67° East  Level FlightAware Approximate
07:43PM 39.0167 -77.1500 349° North 265 305 6,600  Level Potomac TRACON
07:44PM 39.0764 -76.4106 61° Northeast  Level FlightAware Approximate
07:44PM 39.1000 -77.1167 17° North 289 333 8,900  Level Potomac TRACON
07:45PM 39.1167 -76.2837 90° East  Level FlightAware Approximate
07:45PM 39.1167 -77.0167 78° East 313 360 11,300  Level Potomac TRACON
07:47PM 39.1203 -76.7742 89° East 312 359 15,200 1,620 Climbing Washington Center
07:48PM 39.1275 -76.6486 86° East 323 372 16,500 1,320 Climbing Washington Center
07:49PM 39.1350 -76.5203 86° East 343 395 17,900 1,200 Climbing Washington Center
07:50PM 39.1422 -76.3892 86° East 356 410 19,000 780 Climbing Washington Center
07:51PM 39.1242 -76.2578 100° East 361 415 19,500 480 Climbing Washington Center
07:52PM 39.0975 -76.1425 107° East 367 422 20,000 240 Climbing Washington Center
07:53PM 39.1064 -76.0169 85° East 349 402 20,000 480 Level Washington Center
07:54PM 39.1714 -75.9103 52° Northeast 333 383 21,000 900 Climbing Washington Center
07:55PM 39.2444 -75.8114 46° Northeast 349 402 21,900 840 Climbing Washington Center
07:56PM 39.3239 -75.7097 45° Northeast 378 435 22,700 780 Climbing Washington Center
07:57PM 39.4053 -75.6050 45° Northeast 394 453 23,500 780 Climbing Washington Center
07:58PM 39.4886 -75.5003 44° Northeast 404 465 24,300 780 Climbing Washington Center
07:59PM 39.5717 -75.3922 45° Northeast 404 465 25,100 660 Climbing Washington Center
08:01PM 39.7689 -75.1136 47° Northeast 422 486 26,600 600 Climbing New York Center
08:02PM 39.8500 -74.9997 47° Northeast 430 495 27,200 660 Climbing New York Center
08:03PM 39.9364 -74.8589 51° Northeast 438 504 28,000 660 Climbing New York Center
08:04PM 40.0094 -74.7303 53° Northeast 438 504 28,600 480 Climbing New York Center
08:05PM 40.0839 -74.6233 48° Northeast 444 511 29,000 180 Climbing New York Center
08:06PM 40.2106 -74.5733 17° North 425 489 29,000  Level New York Center
08:07PM 40.3350 -74.5311 14° North 437 503 29,000  Level New York Center
08:08PM 40.4592 -74.4944 13° North 442 509 29,000  Level New York Center
08:09PM 40.5853 -74.4603 12° North 447 514 29,000 -300 Level New York Center
08:11PM 40.7786 -74.3997 13° North 472 543 28,300 -720 Descending Boston Center
08:12PM 40.9208 -74.3656 10° North 472 543 27,200 -660 Descending Boston Center
08:13PM 41.0528 -74.3283 12° North 472 543 27,000 -120 Descending Boston Center
08:14PM 41.1786 -74.2906 13° North 472 543 27,000 -120 Level Boston Center
08:15PM 41.3022 -74.2472 15° North 467 537 26,800 -840 Descending Boston Center
08:16PM 41.4278 -74.2092 13° North 461 531 25,400 -1,800 Descending Boston Center
08:17PM 41.5536 -74.1711 13° North 461 531 23,300 -2,100 Descending Boston Center
08:18PM 41.6708 -74.1353 13° North 449 517 21,300 -2,040 Descending Boston Center
08:19PM 41.7756 -74.1047 12° North 419 482 19,300 -2,280 Descending Boston Center
08:20PM 41.8467 -74.0844 12° North 377 434 16,800 -3,240 Descending Boston Center
08:21PM 41.9658 -74.0511 12° North 350 403 13,200 -2,940 Descending Boston Center
08:22PM 42.0622 -74.0200 13° North 326 375 11,000 -1,080 Descending Boston Center
08:23PM 42.1417 -73.9942 14° North 297 342 11,000 -420 Level Boston Center
08:24PM 42.2297 -73.9653 14° North 302 348 10,200 -1,320 Descending Boston Center
08:25PM 42.3050 -73.9364 16° North 284 327 8,400 -1,740 Descending Boston Center
08:26PM 42.3783 -73.9072 16° North 271 312 6,700 -1,740 Descending Boston Center
08:27PM 42.4433 -73.8833 15° North 260 299 5,100 -1,800 Descending Boston Center
08:28PM 42.5103 -73.8567 16° North 252 290 3,300 -1,080 Descending Boston Center
08:29PM 42.5753 -73.8328 15° North 238 274 3,000 -480 Descending Boston Center
08:30PM 42.6214 -73.8114 19° North 164 189 2,400 -660 Descending Boston Center
08:31PM 42.6653 -73.8011 10° North 150 173 1,700 -780 Descending Boston Center
08:32PM 42.7069 -73.8047 356° North 143 165 900 8,880 Descending Boston Center
08:33PM 42.7511 -73.7661 33° Northeast 197 227 16,000 9,480 Climbing Boston Center
08:34PM 42.8139 -73.7419 16° North 197 227 16,000  Level Boston Center
08:35PM 42.8558 -73.7258 16° North 197 227 16,000  Level Boston Center